Terminal Aerodrome Forecast
Issued by NWS

Home | Current Version | Previous Version | Text Only | Print | Product List | Glossary On
Versions: 1 2 3 4 5 6 7 8 9 10 11 12 13 14 15
000
FTUS44 KEPZ 251100
TAFTCS
TAF
KTCS 251120Z 2512/2612 32010KT P6SM SCT250
     FM251900 22015G25KT P6SM BKN100
     FM260200 27010KT P6SM BKN100=

USA.gov is the U.S. government's official web portal to all federal, state and local government web resources and services.